createdAt,value
2018-07-11T00:00:37.793Z,101280.86
2018-07-11T00:03:05.925Z,101286.97
2018-07-11T00:05:34.300Z,101283.84
2018-07-11T00:08:02.373Z,101285.28
2018-07-11T00:10:30.401Z,101285.03
2018-07-11T00:12:58.433Z,101280.02
2018-07-11T00:15:26.884Z,101279.27
2018-07-11T00:17:54.953Z,101277.56
2018-07-11T00:20:23.093Z,101272.17
2018-07-11T00:22:51.122Z,101272.27
2018-07-11T00:25:19.357Z,101274.67
2018-07-11T00:27:47.452Z,101277.31
2018-07-11T00:30:15.606Z,101278.50
2018-07-11T00:32:43.740Z,101276.67
2018-07-11T00:35:11.913Z,101273.19
2018-07-11T00:37:39.961Z,101278.69
2018-07-11T00:40:08.212Z,101275.93
2018-07-11T00:42:36.250Z,101272.80
2018-07-11T00:45:04.969Z,101270.67
2018-07-11T00:47:33.345Z,101272.70
2018-07-11T00:50:01.404Z,101270.89
2018-07-11T00:52:29.429Z,101277.60
2018-07-11T00:54:57.893Z,101283.23
2018-07-11T00:57:26.132Z,101284.09
2018-07-11T00:59:55.246Z,101281.92
2018-07-11T01:02:23.272Z,101280.94
2018-07-11T01:04:51.305Z,101279.38
2018-07-11T01:07:19.347Z,101279.50
2018-07-11T01:09:49.353Z,101280.47
2018-07-11T01:12:18.029Z,101271.59
2018-07-11T01:14:46.509Z,101283.05
2018-07-11T01:17:19.817Z,101283.05
2018-07-11T01:19:48.380Z,101283.17
2018-07-11T01:22:16.426Z,101278.50
2018-07-11T01:24:44.471Z,101281.00
2018-07-11T01:27:12.501Z,101283.82
2018-07-11T01:29:40.533Z,101281.63
2018-07-11T01:32:08.634Z,101280.41
2018-07-11T01:34:36.717Z,101282.31
2018-07-11T01:37:05.633Z,101273.92
2018-07-11T01:39:33.673Z,101272.38
2018-07-11T01:42:01.703Z,101271.16
2018-07-11T01:44:29.730Z,101264.95
2018-07-11T01:46:57.805Z,101270.41
2018-07-11T01:49:25.875Z,101276.11
2018-07-11T01:52:05.276Z,101271.41
2018-07-11T01:54:33.675Z,101278.27
2018-07-11T01:57:01.941Z,101274.16
2018-07-11T01:59:33.846Z,101279.38
2018-07-11T02:02:02.311Z,101277.38
2018-07-11T02:04:31.611Z,101276.00
2018-07-11T02:06:59.737Z,101272.76
2018-07-11T02:09:27.777Z,101273.42
2018-07-11T02:11:56.082Z,101272.84
2018-07-11T02:14:24.526Z,101270.95
2018-07-11T02:16:52.609Z,101274.53
2018-07-11T02:19:21.760Z,101277.74
2018-07-11T02:21:50.233Z,101275.81
2018-07-11T02:26:45.983Z,101274.23
2018-07-11T02:29:14.049Z,101275.55
2018-07-11T02:31:42.088Z,101267.87
2018-07-11T02:34:10.202Z,101267.05
2018-07-11T02:36:38.313Z,101265.83
2018-07-11T02:39:06.357Z,101272.97
2018-07-11T02:41:34.401Z,101276.17
2018-07-11T02:44:02.793Z,101274.86
2018-07-11T02:46:36.223Z,101279.17
2018-07-11T02:49:04.937Z,101272.23
2018-07-11T02:51:33.221Z,101273.92
2018-07-11T02:54:01.270Z,101269.98
2018-07-11T02:56:29.586Z,101274.66
2018-07-11T02:58:57.847Z,101275.70
2018-07-11T03:01:25.883Z,101275.81
2018-07-11T03:03:54.161Z,101272.00
2018-07-11T03:06:22.197Z,101272.08
2018-07-11T03:08:50.471Z,101266.20
2018-07-11T03:11:18.514Z,101263.81
2018-07-11T03:13:46.538Z,101255.52
2018-07-11T03:16:14.771Z,101256.20
2018-07-11T03:18:42.845Z,101256.41
2018-07-11T03:21:10.918Z,101261.95
2018-07-11T03:23:38.984Z,101263.48
2018-07-11T03:26:07.029Z,101252.30
2018-07-11T03:28:35.124Z,101251.47
2018-07-11T03:31:03.311Z,101268.13
2018-07-11T03:33:31.325Z,101257.28
2018-07-11T03:35:59.353Z,101266.05
2018-07-11T03:38:27.462Z,101259.82
2018-07-11T03:40:55.498Z,101260.01
2018-07-11T03:43:23.526Z,101262.36
2018-07-11T03:45:51.579Z,101267.36
2018-07-11T03:48:19.742Z,101261.38
2018-07-11T03:50:47.818Z,101257.72
2018-07-11T03:53:15.853Z,101260.58
2018-07-11T03:55:43.892Z,101257.84
2018-07-11T03:58:11.929Z,101258.97
2018-07-11T04:00:39.994Z,101263.99
2018-07-11T04:03:08.165Z,101262.61
2018-07-11T04:05:36.213Z,101259.33
2018-07-11T04:08:04.265Z,101259.49
2018-07-11T04:10:32.317Z,101254.52
2018-07-11T04:13:01.713Z,101262.84
2018-07-11T04:15:29.894Z,101255.83
2018-07-11T04:17:57.938Z,101252.72
2018-07-11T04:20:26.340Z,101260.00
2018-07-11T04:22:54.538Z,101263.36
2018-07-11T04:25:22.702Z,101266.14
2018-07-11T04:27:50.751Z,101268.93
2018-07-11T04:30:18.963Z,101264.80
2018-07-11T04:32:47.186Z,101268.16
2018-07-11T04:35:15.219Z,101268.78
2018-07-11T04:37:43.261Z,101264.73
2018-07-11T04:40:11.332Z,101270.37
2018-07-11T04:42:39.397Z,101272.00
2018-07-11T04:45:07.438Z,101262.27
2018-07-11T04:47:35.568Z,101251.39
2018-07-11T04:50:03.621Z,101259.95
2018-07-11T04:52:31.780Z,101261.77
2018-07-11T04:55:00.432Z,101258.55
2018-07-11T04:57:28.484Z,101254.42
2018-07-11T04:59:56.530Z,101259.67
2018-07-11T05:02:24.781Z,101250.83
2018-07-11T05:04:52.845Z,101262.91
2018-07-11T05:07:20.910Z,101269.50
2018-07-11T05:09:49.222Z,101268.92
2018-07-11T05:12:17.269Z,101274.44
2018-07-11T05:14:45.463Z,101282.58
2018-07-11T05:17:13.494Z,101280.10
2018-07-11T05:19:41.541Z,101287.28
2018-07-11T05:22:09.593Z,101286.00
2018-07-11T05:24:37.647Z,101290.27
2018-07-11T05:27:05.909Z,101288.89
2018-07-11T05:29:33.965Z,101281.39
2018-07-11T05:32:02.169Z,101276.91
2018-07-11T05:34:30.649Z,101278.51
2018-07-11T05:36:58.858Z,101280.09
2018-07-11T05:39:26.889Z,101283.95
2018-07-11T05:41:55.257Z,101279.62
2018-07-11T05:44:23.333Z,101282.91
2018-07-11T05:46:55.569Z,101280.42
2018-07-11T05:49:23.605Z,101285.03
2018-07-11T05:51:51.842Z,101278.47
2018-07-11T05:54:19.920Z,101280.98
2018-07-11T05:56:48.292Z,101278.59
2018-07-11T05:59:16.373Z,101268.00
2018-07-11T06:01:44.413Z,101278.73
2018-07-11T06:04:12.465Z,101288.16
2018-07-11T06:06:40.533Z,101289.52
2018-07-11T06:09:09.005Z,101292.66
2018-07-11T06:11:37.209Z,101284.69
2018-07-11T06:14:05.264Z,101289.20
2018-07-11T06:16:33.317Z,101292.87
2018-07-11T06:19:01.353Z,101292.44
2018-07-11T06:21:29.617Z,101298.98
2018-07-11T06:23:57.694Z,101296.33
2018-07-11T06:26:25.728Z,101301.01
2018-07-11T06:28:53.781Z,101297.35
2018-07-11T06:31:22.263Z,101296.31
2018-07-11T06:33:50.506Z,101301.80
2018-07-11T06:36:18.653Z,101305.79
2018-07-11T06:38:46.729Z,101307.58
2018-07-11T06:41:14.803Z,101309.32
2018-07-11T06:43:42.882Z,101309.97
2018-07-11T06:46:10.918Z,101312.20
2018-07-11T06:48:39.061Z,101305.41
2018-07-11T06:51:07.101Z,101308.05
2018-07-11T06:53:35.144Z,101299.76
2018-07-11T06:56:03.230Z,101305.03
2018-07-11T06:58:31.293Z,101305.66
2018-07-11T07:00:59.673Z,101299.02
2018-07-11T07:03:27.807Z,101302.95
2018-07-11T07:05:55.783Z,101301.17
2018-07-11T07:08:23.890Z,101298.52
2018-07-11T07:10:51.954Z,101299.62
2018-07-11T07:13:20.142Z,101298.14
2018-07-11T07:15:48.402Z,101301.58
2018-07-11T07:18:16.453Z,101303.03
2018-07-11T07:20:44.557Z,101299.67
2018-07-11T07:23:12.617Z,101298.20
2018-07-11T07:25:40.653Z,101292.20
2018-07-11T07:28:08.708Z,101286.48
2018-07-11T07:30:36.825Z,101280.86
2018-07-11T07:33:04.958Z,101283.79
2018-07-11T07:35:33.293Z,101292.00
2018-07-11T07:38:01.562Z,101296.62
2018-07-11T07:40:29.609Z,101289.20
2018-07-11T07:42:57.660Z,101285.28
2018-07-11T07:45:25.711Z,101287.67
2018-07-11T07:47:53.758Z,101286.97
2018-07-11T07:50:22.317Z,101282.96
2018-07-11T07:52:50.392Z,101285.92
2018-07-11T07:55:18.401Z,101286.47
2018-07-11T07:57:46.545Z,101284.93
2018-07-11T08:00:14.611Z,101284.72
2018-07-11T08:02:42.654Z,101286.12
2018-07-11T08:05:10.951Z,101281.53
2018-07-11T08:07:39.629Z,101279.66
2018-07-11T08:10:08.300Z,101278.26
2018-07-11T08:12:36.693Z,101279.50
2018-07-11T08:15:05.591Z,101275.80
2018-07-11T08:17:33.914Z,101275.46
2018-07-11T08:20:02.276Z,101275.98
2018-07-11T08:23:41.782Z,101268.33
2018-07-11T08:26:21.659Z,101272.02
2018-07-11T08:31:01.502Z,101260.33
2018-07-11T08:35:49.087Z,101263.34
2018-07-11T08:38:26.205Z,101264.80
2018-07-11T08:43:09.234Z,101268.17
2018-07-11T08:46:06.140Z,101263.55
2018-07-11T08:49:50.333Z,101268.30
2018-07-11T08:52:30.558Z,101273.13
2018-07-11T08:55:24.200Z,101276.98
2018-07-11T08:58:03.489Z,101278.34
2018-07-11T09:02:51.179Z,101271.17
2018-07-11T09:06:06.939Z,101268.25
2018-07-11T09:08:51.961Z,101266.84
2018-07-11T09:11:35.131Z,101272.83
2018-07-11T09:16:21.862Z,101265.94
2018-07-11T09:20:04.873Z,101263.69
2018-07-11T09:22:44.230Z,101268.20
2018-07-11T09:25:12.918Z,101269.31
2018-07-11T09:27:40.966Z,101274.02
2018-07-11T09:30:09.366Z,101263.22
2018-07-11T09:32:37.443Z,101267.95
2018-07-11T09:35:05.561Z,101266.58
2018-07-11T09:37:33.962Z,101268.52
2018-07-11T09:40:01.982Z,101260.48
2018-07-11T09:42:30.030Z,101260.84
2018-07-11T09:44:58.169Z,101255.54
2018-07-11T09:47:27.082Z,101252.33
2018-07-11T09:49:55.177Z,101239.33
2018-07-11T09:52:23.541Z,101236.67
2018-07-11T09:54:51.967Z,101244.12
2018-07-11T09:57:20.033Z,101241.55
2018-07-11T09:59:48.397Z,101238.94
2018-07-11T10:02:16.791Z,101234.31
2018-07-11T10:04:44.818Z,101240.31
2018-07-11T10:07:13.389Z,101231.23
2018-07-11T10:09:41.935Z,101231.06
2018-07-11T10:12:10.141Z,101226.95
2018-07-11T10:14:38.240Z,101234.05
2018-07-11T10:17:06.265Z,101221.83
2018-07-11T10:19:34.399Z,101218.52
2018-07-11T10:22:02.762Z,101222.58
2018-07-11T10:24:30.924Z,101221.56
2018-07-11T10:26:58.997Z,101223.72
2018-07-11T10:29:27.073Z,101210.77
2018-07-11T10:31:55.137Z,101211.95
2018-07-11T10:34:23.206Z,101203.52
2018-07-11T10:36:51.396Z,101210.58
2018-07-11T10:39:19.656Z,101203.42
2018-07-11T10:41:47.736Z,101201.47
2018-07-11T10:44:15.884Z,101198.57
2018-07-11T10:46:43.927Z,101201.45
2018-07-11T10:49:12.073Z,101199.00
2018-07-11T10:51:40.105Z,101197.72
2018-07-11T10:54:08.388Z,101202.69
2018-07-11T10:56:36.513Z,101195.94
2018-07-11T10:59:04.849Z,101199.52
2018-07-11T11:01:33.022Z,101197.81
2018-07-11T11:04:01.289Z,101186.03
2018-07-11T11:06:29.333Z,101187.23
2018-07-11T11:08:57.378Z,101186.31
2018-07-11T11:11:25.810Z,101174.38
2018-07-11T11:13:53.866Z,101173.31
2018-07-11T11:16:21.950Z,101168.91
2018-07-11T11:18:50.029Z,101164.31
2018-07-11T11:21:18.209Z,101169.38
2018-07-11T11:23:46.477Z,101170.20
2018-07-11T11:26:14.550Z,101160.22
2018-07-11T11:28:42.601Z,101159.73
2018-07-11T11:31:10.654Z,101171.69
2018-07-11T11:33:38.694Z,101169.30
2018-07-11T11:36:06.833Z,101168.91
2018-07-11T11:38:34.874Z,101176.32
2018-07-11T11:41:02.906Z,101172.95
2018-07-11T11:43:30.970Z,101170.80
2018-07-11T11:45:59.233Z,101172.07
2018-07-11T11:48:27.264Z,101163.48
2018-07-11T11:50:55.301Z,101164.53
2018-07-11T11:53:23.349Z,101158.08
2018-07-11T11:55:51.398Z,101156.22
2018-07-11T11:58:19.477Z,101151.56
2018-07-11T12:00:47.522Z,101148.76
2018-07-11T12:03:15.609Z,101150.09
2018-07-11T12:05:43.657Z,101147.08
2018-07-11T12:08:11.780Z,101153.39
2018-07-11T12:10:39.834Z,101152.08
2018-07-11T12:13:07.869Z,101149.07
2018-07-11T12:15:35.927Z,101149.08
2018-07-11T12:18:04.975Z,101154.75
2018-07-11T12:20:33.022Z,101160.56
2018-07-11T12:23:01.405Z,101159.89
2018-07-11T12:25:29.489Z,101157.55
2018-07-11T12:27:57.562Z,101156.73
2018-07-11T12:30:25.633Z,101154.51
2018-07-11T12:32:53.705Z,101167.58
2018-07-11T12:35:21.767Z,101161.05
2018-07-11T12:37:49.809Z,101160.79
2018-07-11T12:40:18.015Z,101151.76
2018-07-11T12:42:46.281Z,101155.54
2018-07-11T12:45:14.468Z,101154.00
2018-07-11T12:47:48.022Z,101151.32
2018-07-11T12:50:16.083Z,101148.18
2018-07-11T12:52:44.319Z,101143.50
2018-07-11T12:55:12.363Z,101144.83
2018-07-11T12:57:40.573Z,101144.17
2018-07-11T13:00:08.931Z,101137.70
2018-07-11T13:02:37.050Z,101138.52
2018-07-11T13:05:05.688Z,101131.02
2018-07-11T13:07:33.734Z,101130.36
2018-07-11T13:10:01.774Z,101135.38
2018-07-11T13:12:29.943Z,101133.59
2018-07-11T13:14:58.175Z,101130.95
2018-07-11T13:17:26.225Z,101132.95
2018-07-11T13:19:54.274Z,101126.80
2018-07-11T13:22:22.496Z,101129.63
2018-07-11T13:24:50.557Z,101133.44
2018-07-11T13:27:18.625Z,101130.48
2018-07-11T13:29:46.708Z,101133.80
2018-07-11T13:32:14.780Z,101134.45
2018-07-11T13:34:42.833Z,101131.80
2018-07-11T13:37:10.913Z,101129.14
2018-07-11T13:39:39.184Z,101135.95
2018-07-11T13:42:07.230Z,101127.81
2018-07-11T13:44:35.277Z,101134.47
2018-07-11T13:47:07.836Z,101125.51
2018-07-11T13:49:35.883Z,101128.84
2018-07-11T13:52:04.259Z,101124.17
2018-07-11T13:54:32.339Z,101124.52
2018-07-11T13:57:00.374Z,101130.98
2018-07-11T13:59:28.422Z,101136.00
2018-07-11T14:01:57.966Z,101145.09
2018-07-11T14:04:26.649Z,101129.95
2018-07-11T14:06:55.630Z,101132.38
2018-07-11T14:09:23.670Z,101141.61
2018-07-11T14:11:51.717Z,101136.42
2018-07-11T14:14:19.745Z,101142.67
2018-07-11T14:16:48.529Z,101139.77
2018-07-11T14:19:16.581Z,101139.91
2018-07-11T14:21:44.610Z,101138.42
2018-07-11T14:24:13.748Z,101136.25
2018-07-11T14:26:41.785Z,101136.19
2018-07-11T14:29:10.125Z,101135.67
2018-07-11T14:31:38.262Z,101140.44
2018-07-11T14:34:08.001Z,101135.64
2018-07-11T14:36:36.337Z,101130.34
2018-07-11T14:39:06.913Z,101134.67
2018-07-11T14:41:35.001Z,101140.23
2018-07-11T14:44:03.065Z,101132.79
2018-07-11T14:46:33.186Z,101136.80
2018-07-11T14:49:01.259Z,101131.81
2018-07-11T14:51:29.341Z,101131.66
2018-07-11T14:53:57.900Z,101121.55
2018-07-11T14:56:25.966Z,101125.88
2018-07-11T14:58:58.477Z,101124.30
2018-07-11T15:01:26.749Z,101128.19
2018-07-11T15:03:55.014Z,101120.80
2018-07-11T15:06:23.705Z,101121.86
2018-07-11T15:08:52.162Z,101122.13
2018-07-11T15:11:20.630Z,101119.53
2018-07-11T15:13:48.747Z,101115.23
2018-07-11T15:16:16.803Z,101127.11
2018-07-11T15:18:45.071Z,101126.80
2018-07-11T15:21:13.297Z,101125.78
2018-07-11T15:23:41.490Z,101123.11
2018-07-11T15:26:09.521Z,101123.77
2018-07-11T15:28:37.549Z,101119.96
2018-07-11T15:31:05.602Z,101125.45
2018-07-11T15:33:33.637Z,101125.78
2018-07-11T15:36:01.665Z,101131.11
2018-07-11T15:38:29.750Z,101123.48
2018-07-11T15:40:59.018Z,101128.28
2018-07-11T15:43:27.777Z,101130.62
2018-07-11T15:45:56.309Z,101129.61
2018-07-11T15:48:24.425Z,101125.47
2018-07-11T15:50:52.987Z,101129.29
2018-07-11T15:53:21.447Z,101122.81
2018-07-11T15:55:49.949Z,101130.12
2018-07-11T15:58:19.100Z,101129.06
2018-07-11T16:00:47.166Z,101124.41
2018-07-11T16:03:15.205Z,101122.75
2018-07-11T16:05:44.632Z,101126.39
2018-07-11T16:08:16.949Z,101134.37
2018-07-11T16:10:48.764Z,101135.83
2018-07-11T16:13:16.805Z,101135.30
2018-07-11T16:15:45.905Z,101130.45
2018-07-11T16:18:16.011Z,101131.94
2018-07-11T16:20:47.341Z,101130.84
2018-07-11T16:23:15.372Z,101131.84
2018-07-11T16:25:44.223Z,101135.74
2018-07-11T16:28:12.297Z,101135.30
2018-07-11T16:30:40.629Z,101133.33
2018-07-11T16:33:09.312Z,101145.19
2018-07-11T16:35:37.363Z,101146.70
2018-07-11T16:45:23.934Z,101128.56
2018-07-11T16:47:51.997Z,101127.94
2018-07-11T16:50:47.317Z,101130.39
2018-07-11T16:53:15.727Z,101129.74
2018-07-11T16:56:23.734Z,101129.28
2018-07-11T17:06:12.547Z,101123.55
2018-07-11T17:08:47.390Z,101115.55
2018-07-11T17:12:53.374Z,101126.03
2018-07-11T17:15:23.599Z,101124.34
2018-07-11T17:17:54.279Z,101129.19
2018-07-11T17:20:23.802Z,101131.69
2018-07-11T17:22:55.187Z,101123.89
2018-07-11T17:25:23.333Z,101129.70
2018-07-11T17:28:02.276Z,101130.71
2018-07-11T17:30:32.381Z,101127.05
2018-07-11T17:33:01.090Z,101128.72
2018-07-11T17:35:29.278Z,101126.89
2018-07-11T17:37:58.270Z,101130.22
2018-07-11T17:40:26.562Z,101141.34
2018-07-11T17:42:54.998Z,101144.29
2018-07-11T17:45:23.352Z,101162.51
2018-07-11T17:47:57.412Z,101170.00
2018-07-11T17:50:28.352Z,101170.56
2018-07-11T17:53:17.997Z,101168.54
2018-07-11T17:56:01.155Z,101178.98
2018-07-11T17:59:02.067Z,101208.62
2018-07-11T18:01:43.146Z,101210.09
2018-07-11T18:04:18.970Z,101193.95
2018-07-11T18:06:54.461Z,101196.09
2018-07-11T18:09:24.114Z,101195.98
2018-07-11T18:11:54.494Z,101200.91
2018-07-11T18:14:44.133Z,101214.13
2018-07-11T18:17:24.482Z,101210.88
2018-07-11T18:20:00.143Z,101218.64
2018-07-11T18:22:47.366Z,101217.98
2018-07-11T18:25:33.483Z,101222.97
2018-07-11T18:29:18.865Z,101218.41
2018-07-11T18:31:56.714Z,101220.95
2018-07-11T18:34:35.757Z,101220.56
2018-07-11T18:37:20.426Z,101214.63
2018-07-11T18:39:58.095Z,101212.26
2018-07-11T18:42:32.615Z,101213.41
2018-07-11T18:47:14.607Z,101214.78
2018-07-11T18:50:58.890Z,101213.25
2018-07-11T18:54:12.886Z,101217.80
2018-07-11T18:57:06.855Z,101217.86
2018-07-11T19:00:10.933Z,101213.67
2018-07-11T19:05:53.452Z,101215.42
2018-07-11T19:08:28.853Z,101211.01
2018-07-11T19:11:20.736Z,101208.63
2018-07-11T19:13:51.430Z,101214.92
2018-07-11T19:16:44.718Z,101208.73
2018-07-11T19:19:18.114Z,101217.45
2018-07-11T19:21:55.482Z,101215.58
2018-07-11T19:24:36.693Z,101215.07
2018-07-11T19:27:12.684Z,101216.13
2018-07-11T19:30:02.870Z,101219.80
2018-07-11T19:32:45.295Z,101214.80
2018-07-11T19:35:17.925Z,101213.63
2018-07-11T19:37:53.093Z,101216.06
2018-07-11T19:40:32.120Z,101221.36
2018-07-11T19:43:06.312Z,101224.16
2018-07-11T19:48:44.277Z,101228.76
2018-07-11T19:52:35.768Z,101234.77
2018-07-11T19:55:31.694Z,101234.66
2018-07-11T19:57:59.769Z,101232.48
2018-07-11T20:00:27.878Z,101227.34
2018-07-11T20:02:56.043Z,101236.72
2018-07-11T20:05:24.375Z,101235.70
2018-07-11T20:07:52.950Z,101233.25
2018-07-11T20:10:21.439Z,101235.14
2018-07-11T20:12:49.884Z,101238.56
2018-07-11T20:15:18.136Z,101238.34
2018-07-11T20:17:46.170Z,101242.94
2018-07-11T20:20:14.342Z,101242.61
2018-07-11T20:22:42.681Z,101245.88
2018-07-11T20:25:10.830Z,101246.72
2018-07-11T20:27:40.259Z,101239.59
2018-07-11T20:30:08.865Z,101248.86
2018-07-11T20:32:36.958Z,101248.86
2018-07-11T20:35:05.133Z,101240.92
2018-07-11T20:37:33.215Z,101249.38
2018-07-11T20:40:01.661Z,101246.36
2018-07-11T20:42:29.785Z,101246.14
2018-07-11T20:44:58.086Z,101247.76
2018-07-11T20:47:26.131Z,101245.95
2018-07-11T20:49:54.182Z,101240.30
2018-07-11T20:52:24.469Z,101233.98
2018-07-11T20:54:52.522Z,101243.94
2018-07-11T20:57:20.564Z,101243.43
2018-07-11T21:00:00.034Z,101245.27
2018-07-11T21:02:39.400Z,101250.04
2018-07-11T21:07:22.233Z,101252.06
2018-07-11T21:12:03.938Z,101255.55
2018-07-11T21:14:41.995Z,101254.37
2018-07-11T21:17:30.099Z,101250.55
2018-07-11T21:19:58.303Z,101250.67
2018-07-11T21:22:26.338Z,101253.24
2018-07-11T21:24:55.504Z,101249.72
2018-07-11T21:27:23.548Z,101255.48
2018-07-11T21:29:51.621Z,101246.00
2018-07-11T21:32:19.657Z,101252.62
2018-07-11T21:34:47.741Z,101258.53
2018-07-11T21:37:15.813Z,101255.05
2018-07-11T21:39:43.929Z,101248.65
2018-07-11T21:42:11.998Z,101246.22
2018-07-11T21:44:40.059Z,101239.94
2018-07-11T21:47:08.128Z,101242.47
2018-07-11T21:49:36.178Z,101247.25
2018-07-11T21:52:04.604Z,101247.77
2018-07-11T21:54:32.695Z,101248.87
2018-07-11T21:57:00.739Z,101251.92
2018-07-11T21:59:28.791Z,101247.59
2018-07-11T22:01:56.898Z,101240.83
2018-07-11T22:04:25.072Z,101241.37
2018-07-11T22:06:53.245Z,101244.30
2018-07-11T22:09:21.286Z,101243.75
2018-07-11T22:11:49.366Z,101249.69
2018-07-11T22:14:17.542Z,101253.06
2018-07-11T22:16:45.580Z,101250.09
2018-07-11T22:19:14.063Z,101251.80
2018-07-11T22:21:41.129Z,101248.38
2018-07-11T22:24:08.342Z,101240.73
2018-07-11T22:26:35.563Z,101236.32
2018-07-11T22:29:03.582Z,101245.85
2018-07-11T22:31:30.642Z,101250.20
2018-07-11T22:33:57.698Z,101254.56
2018-07-11T22:36:24.765Z,101256.87
2018-07-11T22:38:51.834Z,101256.27
2018-07-11T22:41:18.900Z,101258.97
2018-07-11T22:43:46.845Z,101253.27
2018-07-11T22:46:13.927Z,101256.38
2018-07-11T22:48:41.142Z,101251.09
2018-07-11T22:51:08.208Z,101252.89
2018-07-11T22:53:35.269Z,101248.70
2018-07-11T22:56:02.337Z,101252.80
2018-07-11T22:58:29.413Z,101249.59
2018-07-11T23:00:56.471Z,101254.65
2018-07-11T23:03:23.535Z,101252.48
2018-07-11T23:05:50.594Z,101255.13
2018-07-11T23:08:17.718Z,101252.99
2018-07-11T23:10:44.898Z,101250.59
2018-07-11T23:13:12.046Z,101246.69
2018-07-11T23:15:39.191Z,101246.36
2018-07-11T23:18:06.267Z,101251.80
2018-07-11T23:20:33.636Z,101254.44
2018-07-11T23:23:00.674Z,101250.80
2018-07-11T23:25:27.749Z,101249.15
2018-07-11T23:27:54.832Z,101252.03
2018-07-11T23:30:21.892Z,101253.05
2018-07-11T23:32:48.961Z,101251.36
2018-07-11T23:35:16.025Z,101247.91
2018-07-11T23:37:43.090Z,101250.82
2018-07-11T23:40:10.311Z,101252.48
2018-07-11T23:42:37.516Z,101257.89
2018-07-11T23:45:04.588Z,101256.70
2018-07-11T23:47:31.662Z,101252.75
2018-07-11T23:49:58.729Z,101254.30
2018-07-11T23:52:25.793Z,101255.62
2018-07-11T23:54:52.857Z,101253.13
2018-07-11T23:57:19.935Z,101253.49
2018-07-11T23:59:46.998Z,101255.89
